Time;durP1;ratioP1;P1;durP2;ratioP2;P2;SDS_P1;SDS_P2;PMS_P1;PMS_P2;Temp;Humidity;BMP_temperature;BMP_pressure;BME280_temperature;BME280_humidity;BME280_pressure;Samples;Min_cycle;Max_cycle;Signal;HPM_P1;HPM_P2
2022/01/30 00:00:11;;;;;;;32.57;4.23;;;6.40;99.90;;;;;;5058962;28;20053;-57
2022/01/30 00:02:36;;;;;;;23.85;4.00;;;6.40;99.90;;;;;;5052587;28;20033;-58
2022/01/30 00:05:02;;;;;;;27.67;4.43;;;6.40;99.90;;;;;;5052896;28;20064;-57
2022/01/30 00:07:28;;;;;;;26.63;4.00;;;6.40;99.90;;;;;;5046665;28;20490;-56
2022/01/30 00:09:53;;;;;;;25.03;3.50;;;6.40;99.90;;;;;;5053191;28;20049;-59
2022/01/30 00:12:27;;;;;;;25.17;4.50;;;6.40;99.90;;;;;;5052594;28;20478;-55
2022/01/30 00:14:55;;;;;;;25.95;3.83;;;6.30;99.90;;;;;;5052165;28;20050;-58
2022/01/30 00:17:26;;;;;;;23.33;3.85;;;6.30;99.90;;;;;;5051914;28;20049;-57
2022/01/30 00:19:58;;;;;;;22.48;4.20;;;6.30;99.90;;;;;;5052892;28;20433;-58
2022/01/30 00:23:08;;;;;;;25.60;3.25;;;6.30;99.90;;;;;;5052944;28;20044;-58
2022/01/30 00:25:19;;;;;;;25.65;4.82;;;6.30;99.90;;;;;;5051042;28;20122;-59
2022/01/30 00:27:49;;;;;;;22.05;3.03;;;6.30;99.90;;;;;;5052640;28;20451;-59
2022/01/30 00:30:16;;;;;;;29.23;4.15;;;6.30;99.90;;;;;;5051183;28;20041;-59
2022/01/30 00:32:42;;;;;;;18.27;2.38;;;6.30;99.90;;;;;;5052525;28;20103;-60
2022/01/30 00:35:11;;;;;;;21.60;2.58;;;6.30;99.90;;;;;;5052114;28;20037;-58
2022/01/30 00:37:40;;;;;;;21.15;3.03;;;6.40;99.90;;;;;;5052160;28;20033;-58
2022/01/30 00:40:07;;;;;;;20.90;2.63;;;6.40;99.90;;;;;;5033910;28;20079;-59
2022/01/30 00:42:32;;;;;;;21.50;4.05;;;6.40;99.90;;;;;;5052570;28;20037;-58
2022/01/30 00:44:58;;;;;;;20.57;3.60;;;6.40;99.90;;;;;;5062437;28;20037;-59
2022/01/30 00:47:24;;;;;;;29.40;4.22;;;6.40;99.90;;;;;;5052631;28;20494;-59
2022/01/30 00:49:50;;;;;;;21.53;2.53;;;6.30;99.90;;;;;;5052185;28;20163;-58
2022/01/30 00:52:17;;;;;;;23.05;2.47;;;6.30;99.90;;;;;;5051967;28;20567;-60
2022/01/30 00:54:43;;;;;;;29.10;4.13;;;6.20;99.90;;;;;;5051554;28;20498;-59
2022/01/30 00:57:09;;;;;;;19.02;3.20;;;6.20;99.90;;;;;;5051999;28;20444;-60
2022/01/30 00:59:35;;;;;;;19.95;3.28;;;6.20;99.90;;;;;;5051406;28;20510;-59
2022/01/30 01:02:02;;;;;;;23.25;3.67;;;6.10;99.90;;;;;;5067507;28;20091;-60
2022/01/30 01:04:27;;;;;;;20.52;2.83;;;6.10;99.90;;;;;;5051093;28;20406;-59
2022/01/30 01:06:53;;;;;;;18.73;3.43;;;6.00;99.90;;;;;;5051359;28;20047;-60
2022/01/30 01:09:22;;;;;;;22.65;3.63;;;6.00;99.90;;;;;;5051123;28;20120;-60
2022/01/30 01:12:35;;;;;;;26.00;3.05;;;6.00;99.90;;;;;;5034454;28;20040;-58
2022/01/30 01:25:49;;;;;;;21.55;3.13;;;6.10;99.90;;;;;;5038753;28;20041;-59
2022/01/30 01:28:14;;;;;;;15.93;3.27;;;6.10;99.90;;;;;;5050139;28;20036;-60
2022/01/30 01:30:40;;;;;;;19.43;3.23;;;6.10;99.90;;;;;;5049172;28;20041;-60
2022/01/30 01:33:06;;;;;;;19.80;3.87;;;6.10;99.90;;;;;;5051920;28;20120;-60
2022/01/30 01:35:32;;;;;;;21.90;3.35;;;6.00;99.90;;;;;;5050989;28;20116;-59
2022/01/30 01:37:57;;;;;;;17.97;2.93;;;6.00;99.90;;;;;;5051072;28;20524;-59
2022/01/30 01:40:23;;;;;;;22.27;4.47;;;6.00;99.90;;;;;;5050832;28;20037;-60
2022/01/30 01:42:49;;;;;;;27.45;3.65;;;5.90;99.90;;;;;;5049763;28;20037;-59
2022/01/30 01:45:23;;;;;;;28.03;3.30;;;5.90;99.90;;;;;;5043657;28;20040;-59
2022/01/30 01:47:49;;;;;;;29.95;4.20;;;5.90;99.90;;;;;;5050667;28;20049;-59
2022/01/30 01:50:37;;;;;;;24.30;3.22;;;5.90;99.90;;;;;;5050849;28;20044;-60
2022/01/30 01:53:03;;;;;;;21.55;3.83;;;5.90;99.90;;;;;;5050238;28;20136;-60
2022/01/30 01:55:29;;;;;;;17.50;3.88;;;5.80;99.90;;;;;;5050401;28;20040;-60
2022/01/30 01:57:54;;;;;;;28.50;4.40;;;5.80;99.90;;;;;;5050863;28;20036;-60
2022/01/30 02:00:20;;;;;;;22.57;3.83;;;5.80;99.90;;;;;;5056920;28;20111;-60
2022/01/30 02:02:45;;;;;;;27.60;4.50;;;5.80;99.90;;;;;;5042547;28;20486;-59
2022/01/30 02:05:11;;;;;;;22.67;2.57;;;5.70;99.90;;;;;;5065958;28;20040;-60
2022/01/30 02:08:07;;;;;;;30.10;3.85;;;5.70;99.90;;;;;;5050033;28;20064;-60
2022/01/30 02:10:45;;;;;;;26.67;3.50;;;5.70;99.90;;;;;;5045485;28;20041;-60
2022/01/30 02:25:03;;;;;;;19.92;4.32;;;5.60;99.90;;;;;;5049630;28;20040;-59
2022/01/30 02:27:05;;;;;;;18.38;3.35;;;5.60;99.90;;;;;;5039498;28;20045;-61
2022/01/30 02:29:31;;;;;;;22.42;3.10;;;5.60;99.90;;;;;;5048511;28;20533;-60
2022/01/30 02:31:58;;;;;;;19.80;2.72;;;5.70;99.90;;;;;;5050853;28;20041;-60
2022/01/30 02:34:26;;;;;;;19.88;3.20;;;5.70;99.90;;;;;;5049752;28;20071;-59
2022/01/30 02:36:52;;;;;;;27.27;3.42;;;5.70;99.90;;;;;;5050247;28;20041;-60
2022/01/30 02:39:19;;;;;;;24.27;3.83;;;5.70;99.90;;;;;;5050444;28;20090;-61
2022/01/30 02:41:45;;;;;;;18.80;2.90;;;5.70;99.90;;;;;;5050131;28;20037;-59
2022/01/30 02:44:17;;;;;;;18.35;3.78;;;5.70;99.90;;;;;;5049380;28;20112;-60
2022/01/30 02:46:49;;;;;;;22.73;4.22;;;5.70;99.90;;;;;;5043057;28;20072;-60
2022/01/30 02:51:51;;;;;;;29.75;3.83;;;5.70;99.90;;;;;;5056560;28;20045;-57
2022/01/30 02:54:17;;;;;;;26.27;3.80;;;5.70;99.90;;;;;;5055148;28;20044;-58
2022/01/30 02:56:43;;;;;;;29.48;3.67;;;5.70;99.90;;;;;;5048063;28;20112;-55
2022/01/30 02:59:09;;;;;;;29.63;4.72;;;5.80;99.90;;;;;;5049537;28;20035;-58
2022/01/30 03:01:34;;;;;;;29.45;4.15;;;5.80;99.90;;;;;;5044851;28;20041;-61
2022/01/30 03:04:00;;;;;;;21.97;3.33;;;5.80;99.90;;;;;;5049131;28;20045;-62
2022/01/30 03:06:27;;;;;;;26.30;3.92;;;5.80;99.90;;;;;;5048512;28;20128;-60
2022/01/30 03:08:53;;;;;;;25.73;3.50;;;5.80;99.90;;;;;;5049513;28;20048;-61
2022/01/30 03:11:19;;;;;;;24.50;4.10;;;5.90;99.90;;;;;;5050214;28;20056;-61
2022/01/30 03:13:44;;;;;;;32.30;4.72;;;5.90;99.90;;;;;;5049731;28;20412;-61
2022/01/30 03:16:10;;;;;;;32.83;5.20;;;5.80;99.90;;;;;;5042861;28;20041;-60
2022/01/30 03:18:36;;;;;;;19.23;3.43;;;5.90;99.90;;;;;;5049581;28;20052;-60
2022/01/30 03:21:03;;;;;;;30.85;4.93;;;5.90;99.90;;;;;;5049482;28;20047;-59
2022/01/30 03:23:29;;;;;;;23.55;4.15;;;5.90;99.90;;;;;;5049423;28;20095;-58
2022/01/30 03:25:58;;;;;;;27.00;4.35;;;5.90;99.90;;;;;;5049130;28;20041;-54
2022/01/30 03:28:24;;;;;;;31.20;4.57;;;5.90;99.90;;;;;;5049572;28;20414;-58
2022/01/30 03:30:54;;;;;;;21.65;3.08;;;5.90;99.90;;;;;;5048390;28;20045;-59
2022/01/30 03:33:21;;;;;;;21.85;3.28;;;5.90;99.90;;;;;;5048561;28;20124;-59
2022/01/30 03:35:46;;;;;;;26.85;4.53;;;6.00;99.90;;;;;;5048995;28;20062;-60
2022/01/30 03:38:14;;;;;;;23.90;3.33;;;6.00;99.90;;;;;;5049554;28;20033;-59
2022/01/30 03:40:39;;;;;;;25.88;3.72;;;6.00;99.90;;;;;;5064460;28;20045;-60
2022/01/30 03:43:05;;;;;;;18.93;3.70;;;6.00;99.90;;;;;;5049672;28;20112;-60
2022/01/30 03:45:31;;;;;;;17.98;3.60;;;5.90;99.90;;;;;;5037628;28;20033;-59
2022/01/30 03:47:57;;;;;;;20.33;3.08;;;5.90;99.90;;;;;;5049355;28;20048;-60
2022/01/30 03:50:23;;;;;;;24.03;5.53;;;5.90;99.90;;;;;;5049016;28;20037;-59
2022/01/30 03:52:49;;;;;;;28.52;2.97;;;5.90;99.90;;;;;;5049325;28;20434;-57
2022/01/30 03:55:15;;;;;;;26.55;5.80;;;5.90;99.90;;;;;;5048932;28;20037;-60
2022/01/30 03:57:41;;;;;;;23.00;2.80;;;5.80;99.90;;;;;;5049225;28;20049;-59
2022/01/30 04:00:08;;;;;;;26.47;3.77;;;5.80;99.90;;;;;;5048302;28;20128;-59
2022/01/30 04:02:34;;;;;;;21.77;3.92;;;5.80;99.90;;;;;;5049074;28;20502;-59
2022/01/30 04:04:59;;;;;;;23.73;3.35;;;5.70;99.90;;;;;;5048882;28;20049;-59
2022/01/30 04:07:26;;;;;;;33.83;6.00;;;5.70;99.90;;;;;;5049463;28;20040;-59
2022/01/30 04:09:52;;;;;;;26.75;3.95;;;5.60;99.90;;;;;;5049364;28;20059;-60
2022/01/30 04:12:18;;;;;;;26.92;5.45;;;5.60;99.90;;;;;;5051681;28;20508;-60
2022/01/30 04:14:44;;;;;;;28.67;4.63;;;5.60;99.90;;;;;;5051430;28;20068;-58
2022/01/30 04:17:09;;;;;;;38.30;5.70;;;5.60;99.90;;;;;;5052788;28;20045;-59
2022/01/30 04:19:36;;;;;;;31.20;4.37;;;5.60;99.90;;;;;;5052517;28;20079;-59
2022/01/30 04:22:03;;;;;;;25.55;5.05;;;5.60;99.90;;;;;;5052262;28;20074;-60
2022/01/30 04:24:28;;;;;;;28.77;6.22;;;5.60;99.90;;;;;;5051426;28;20076;-60
2022/01/30 04:26:54;;;;;;;26.37;4.90;;;5.60;99.90;;;;;;5052477;28;20183;-58
2022/01/30 04:29:21;;;;;;;29.38;4.97;;;5.60;99.90;;;;;;5045969;28;20148;-60
2022/01/30 04:31:49;;;;;;;39.70;7.73;;;5.60;99.90;;;;;;5052214;28;20108;-59
2022/01/30 04:34:15;;;;;;;25.17;5.72;;;5.60;99.90;;;;;;5052935;28;20321;-60
2022/01/30 04:36:55;;;;;;;31.27;5.07;;;5.70;99.90;;;;;;5051672;28;20064;-61
2022/01/30 04:42:20;;;;;;;38.42;5.88;;;5.70;99.90;;;;;;5051282;28;20060;-60
2022/01/30 04:53:13;;;;;;;33.17;5.70;;;5.70;99.90;;;;;;5051857;28;20041;-60
2022/01/30 04:58:33;;;;;;;31.58;4.53;;;5.70;99.90;;;;;;5051066;28;20041;-59
2022/01/30 05:01:12;;;;;;;31.45;4.60;;;5.70;99.90;;;;;;5036341;28;20053;-58
2022/01/30 05:04:16;;;;;;;43.40;6.47;;;5.80;99.90;;;;;;5049677;28;20040;-60
2022/01/30 05:06:53;;;;;;;34.75;6.40;;;5.80;99.90;;;;;;5051548;28;20064;-60
2022/01/30 05:09:15;;;;;;;28.55;4.82;;;5.70;99.90;;;;;;5051319;28;20056;-60
2022/01/30 05:11:41;;;;;;;42.85;7.10;;;5.70;99.90;;;;;;5052230;28;20041;-60
2022/01/30 05:14:07;;;;;;;33.53;5.37;;;5.60;99.90;;;;;;5046501;28;20405;-59
2022/01/30 05:16:34;;;;;;;35.72;5.40;;;5.60;99.90;;;;;;5051304;28;20036;-60
2022/01/30 05:19:00;;;;;;;28.58;6.15;;;5.50;99.90;;;;;;5049664;28;20120;-59
2022/01/30 05:21:26;;;;;;;30.05;6.00;;;5.50;99.90;;;;;;5051254;28;20147;-57
2022/01/30 05:23:52;;;;;;;25.75;4.25;;;5.50;99.90;;;;;;5050134;28;20508;-59
2022/01/30 05:26:22;;;;;;;31.52;6.03;;;5.50;99.90;;;;;;5051384;28;20091;-59
2022/01/30 05:28:47;;;;;;;29.10;5.45;;;5.50;99.90;;;;;;5051572;28;20073;-59
2022/01/30 05:31:13;;;;;;;29.38;5.85;;;5.50;99.90;;;;;;5050693;28;20080;-59
2022/01/30 05:33:39;;;;;;;37.97;6.07;;;5.40;99.90;;;;;;5051246;28;20041;-60
2022/01/30 05:36:06;;;;;;;32.93;6.93;;;5.40;99.90;;;;;;5051302;28;20064;-59
2022/01/30 05:38:32;;;;;;;48.70;6.78;;;5.40;99.90;;;;;;5050056;28;20521;-59
2022/01/30 05:40:58;;;;;;;42.20;8.13;;;5.40;99.90;;;;;;5051541;28;20037;-59
2022/01/30 05:43:27;;;;;;;44.53;6.67;;;5.40;99.90;;;;;;5051027;28;20474;-59
2022/01/30 05:46:05;;;;;;;42.92;7.22;;;5.40;99.90;;;;;;5053769;28;20295;-58
2022/01/30 05:48:31;;;;;;;43.90;7.00;;;5.40;99.90;;;;;;5057211;28;20099;-59
2022/01/30 05:50:56;;;;;;;42.27;7.30;;;5.40;99.90;;;;;;5052147;28;20037;-54
2022/01/30 05:53:22;;;;;;;40.87;6.60;;;5.30;99.90;;;;;;5050865;28;20284;-55
2022/01/30 05:55:50;;;;;;;44.77;6.60;;;5.30;99.90;;;;;;5049753;28;20040;-59
2022/01/30 05:58:15;;;;;;;47.85;8.63;;;5.30;99.90;;;;;;5050318;28;20082;-58
2022/01/30 06:00:41;;;;;;;42.60;6.87;;;5.30;99.90;;;;;;5045060;28;20037;-56
2022/01/30 06:03:07;;;;;;;40.07;7.90;;;5.30;99.90;;;;;;5050256;28;20049;-60
2022/01/30 06:05:32;;;;;;;39.23;5.70;;;5.30;99.90;;;;;;5050162;28;20037;-59
2022/01/30 06:08:08;;;;;;;43.80;6.07;;;5.30;99.90;;;;;;5050672;28;20037;-58
2022/01/30 06:10:34;;;;;;;28.40;5.63;;;5.30;99.90;;;;;;5043368;28;20116;-58
2022/01/30 06:12:59;;;;;;;42.87;5.53;;;5.20;99.90;;;;;;5050670;28;20120;-61
2022/01/30 06:15:25;;;;;;;53.07;8.60;;;5.20;99.90;;;;;;5047938;28;20040;-59
2022/01/30 06:17:51;;;;;;;34.60;6.57;;;5.10;99.90;;;;;;5050737;28;20037;-59
2022/01/30 06:20:16;;;;;;;42.17;7.53;;;5.10;99.90;;;;;;5050059;28;20040;-59
2022/01/30 06:22:42;;;;;;;41.73;6.73;;;5.10;99.90;;;;;;5050217;28;20047;-59
2022/01/30 06:25:08;;;;;;;41.63;6.37;;;5.10;99.90;;;;;;5050010;28;20033;-59
2022/01/30 06:27:34;;;;;;;44.17;7.90;;;5.00;99.90;;;;;;5050265;28;20059;-59
2022/01/30 06:29:59;;;;;;;41.43;6.40;;;5.00;99.90;;;;;;5043346;28;20506;-59
2022/01/30 06:32:25;;;;;;;44.43;7.50;;;4.90;99.90;;;;;;5049874;28;20055;-59
2022/01/30 06:34:50;;;;;;;49.30;6.63;;;4.90;99.90;;;;;;5048684;28;20052;-62
2022/01/30 06:37:16;;;;;;;44.47;7.57;;;4.90;99.90;;;;;;5049785;28;20037;-60
2022/01/30 06:39:42;;;;;;;45.97;8.33;;;4.90;99.90;;;;;;5049809;28;20036;-62
2022/01/30 06:42:08;;;;;;;47.97;7.97;;;4.80;99.90;;;;;;5050284;28;20037;-57
2022/01/30 06:44:33;;;;;;;40.28;6.60;;;4.80;99.90;;;;;;5048949;28;20040;-58
2022/01/30 06:46:59;;;;;;;56.65;6.93;;;4.80;99.90;;;;;;5050113;28;20036;-56
2022/01/30 06:49:25;;;;;;;39.20;7.97;;;4.80;99.90;;;;;;5049832;28;20083;-59
2022/01/30 06:51:50;;;;;;;44.10;7.07;;;4.80;99.90;;;;;;5050291;28;20032;-59
2022/01/30 06:54:16;;;;;;;36.60;7.17;;;4.80;99.90;;;;;;5048953;28;20041;-57
2022/01/30 06:56:41;;;;;;;41.70;8.67;;;4.80;99.90;;;;;;5049939;28;20117;-58
2022/01/30 06:59:07;;;;;;;45.53;7.93;;;4.80;99.90;;;;;;5048883;28;20041;-59
2022/01/30 07:01:32;;;;;;;36.57;6.47;;;4.90;99.90;;;;;;5043752;28;20405;-57
2022/01/30 07:03:58;;;;;;;42.13;7.87;;;5.00;99.90;;;;;;5049925;28;20516;-57
2022/01/30 07:06:24;;;;;;;50.53;7.50;;;5.00;99.90;;;;;;5049793;28;20059;-57
2022/01/30 07:08:49;;;;;;;48.43;8.23;;;5.10;99.90;;;;;;5049397;28;20057;-58
2022/01/30 07:11:15;;;;;;;40.20;7.13;;;5.10;99.90;;;;;;5050258;28;20128;-59
2022/01/30 07:13:41;;;;;;;53.33;8.68;;;5.10;99.90;;;;;;5049680;28;20064;-58
2022/01/30 07:16:07;;;;;;;51.92;8.52;;;5.20;99.90;;;;;;5044981;28;20257;-59
2022/01/30 07:18:33;;;;;;;51.90;7.57;;;5.20;99.90;;;;;;5048353;28;20056;-58
2022/01/30 07:20:59;;;;;;;33.53;9.60;;;5.20;99.90;;;;;;5049933;28;20079;-58
2022/01/30 07:23:24;;;;;;;42.20;9.43;;;5.20;99.90;;;;;;5048256;28;20044;-59
2022/01/30 07:25:50;;;;;;;36.47;6.80;;;5.20;99.90;;;;;;5048996;28;20128;-58
2022/01/30 07:28:15;;;;;;;47.67;6.80;;;5.20;99.90;;;;;;5049955;28;20044;-59
2022/01/30 07:30:41;;;;;;;47.93;8.43;;;5.30;99.90;;;;;;5049109;28;20094;-59
2022/01/30 07:33:06;;;;;;;48.87;8.73;;;5.30;99.90;;;;;;5048974;28;20049;-57
2022/01/30 07:35:36;;;;;;;55.00;6.57;;;5.30;99.90;;;;;;5049452;28;20045;-59
2022/01/30 07:38:02;;;;;;;52.80;8.43;;;5.30;99.90;;;;;;5049495;28;20048;-59
2022/01/30 07:40:28;;;;;;;41.03;7.07;;;5.30;99.90;;;;;;5049869;28;20313;-57
2022/01/30 07:42:53;;;;;;;34.60;6.07;;;5.40;99.90;;;;;;5049676;28;20083;-60
2022/01/30 07:45:19;;;;;;;37.07;8.37;;;5.40;99.90;;;;;;5048905;28;20041;-58
2022/01/30 07:47:44;;;;;;;39.43;9.47;;;5.40;99.90;;;;;;5064173;28;20494;-59
2022/01/30 07:50:10;;;;;;;42.60;9.33;;;5.40;99.90;;;;;;5053646;28;20501;-59
2022/01/30 07:52:36;;;;;;;45.47;8.73;;;5.40;99.90;;;;;;5053532;28;20497;-58
2022/01/30 07:55:02;;;;;;;46.47;6.60;;;5.50;99.90;;;;;;5035138;28;20156;-59
2022/01/30 07:57:27;;;;;;;37.88;6.53;;;5.50;99.90;;;;;;5053119;28;20406;-59
2022/01/30 07:59:53;;;;;;;56.40;10.03;;;5.50;99.90;;;;;;5049238;28;20029;-59
2022/01/30 08:02:18;;;;;;;41.87;8.53;;;5.50;99.90;;;;;;5053827;28;20397;-59
2022/01/30 08:04:44;;;;;;;37.37;6.73;;;5.50;99.90;;;;;;5047277;28;20040;-60
2022/01/30 08:07:10;;;;;;;39.67;6.67;;;5.60;99.90;;;;;;5053283;28;20033;-58
2022/01/30 08:09:36;;;;;;;39.60;7.88;;;5.60;99.90;;;;;;5053430;28;20037;-58
2022/01/30 08:12:01;;;;;;;41.37;7.30;;;5.60;99.90;;;;;;5053028;28;20036;-58
2022/01/30 08:14:27;;;;;;;43.10;8.10;;;5.60;99.90;;;;;;5052586;28;20041;-60
2022/01/30 08:16:52;;;;;;;58.80;9.63;;;5.70;99.90;;;;;;5052792;28;20097;-60
2022/01/30 08:19:21;;;;;;;44.93;7.53;;;5.70;99.90;;;;;;5052809;28;20068;-61
2022/01/30 08:21:47;;;;;;;41.88;9.75;;;5.70;99.90;;;;;;5053123;28;20486;-58
2022/01/30 08:24:13;;;;;;;;;;;5.80;99.90;;;;;;5053020;28;20041;-59
2022/01/30 08:26:38;;;;;;;57.10;8.55;;;5.80;99.90;;;;;;5052252;28;19944;-60
2022/01/30 08:29:04;;;;;;;50.93;8.17;;;5.90;99.90;;;;;;5052785;28;20090;-60
2022/01/30 08:31:29;;;;;;;47.73;9.00;;;5.90;99.90;;;;;;5051876;28;20064;-60
2022/01/30 08:33:55;;;;;;;47.70;7.73;;;5.90;99.90;;;;;;5049849;28;20086;-60
2022/01/30 08:36:21;;;;;;;53.03;9.90;;;5.90;99.90;;;;;;5052210;28;20068;-61
2022/01/30 08:38:46;;;;;;;54.77;10.37;;;5.90;99.90;;;;;;5052400;28;20288;-61
2022/01/30 08:41:12;;;;;;;49.80;9.07;;;6.00;99.90;;;;;;5057229;28;20036;-59
2022/01/30 08:43:37;;;;;;;55.10;9.40;;;6.00;99.90;;;;;;5058787;28;20222;-58
2022/01/30 08:46:03;;;;;;;41.33;8.47;;;6.00;99.90;;;;;;5053040;28;20112;-55
2022/01/30 08:48:31;;;;;;;50.30;8.00;;;6.10;99.90;;;;;;5051944;28;20052;-58
2022/01/30 08:50:57;;;;;;;56.83;7.78;;;6.10;99.90;;;;;;5068026;28;20044;-57
2022/01/30 08:53:23;;;;;;;34.30;7.53;;;6.40;99.90;;;;;;5052200;28;20100;-60
2022/01/30 08:55:48;;;;;;;36.53;7.33;;;7.00;99.90;;;;;;5051967;28;20047;-62
2022/01/30 08:58:14;;;;;;;40.17;7.17;;;7.50;99.90;;;;;;5052076;28;20537;-59
2022/01/30 09:00:42;;;;;;;45.57;7.77;;;8.00;99.90;;;;;;5052205;28;20036;-58
2022/01/30 09:03:08;;;;;;;33.88;6.07;;;8.60;99.40;;;;;;5051882;28;20041;-58
2022/01/30 09:05:35;;;;;;;42.28;9.32;;;9.20;97.90;;;;;;5051795;28;20036;-58
2022/01/30 09:08:04;;;;;;;44.83;7.60;;;9.50;95.60;;;;;;5052118;28;20087;-58
2022/01/30 09:10:30;;;;;;;69.43;10.40;;;9.30;92.40;;;;;;5061550;28;20053;-55
2022/01/30 09:12:56;;;;;;;42.67;8.10;;;9.00;90.70;;;;;;5052155;28;20437;-59
2022/01/30 09:15:22;;;;;;;46.47;8.20;;;8.70;89.20;;;;;;5051572;28;20103;-60
2022/01/30 09:17:47;;;;;;;49.37;8.17;;;8.50;91.10;;;;;;5051875;28;20375;-59
2022/01/30 09:20:13;;;;;;;33.47;7.27;;;8.70;92.80;;;;;;5050292;28;20044;-58
2022/01/30 09:22:39;;;;;;;45.72;8.20;;;9.30;91.80;;;;;;5050861;28;20287;-60
2022/01/30 09:25:06;;;;;;;46.38;8.10;;;9.70;87.00;;;;;;5050622;28;20264;-63
2022/01/30 09:27:32;;;;;;;48.92;7.53;;;9.90;81.20;;;;;;5051484;28;20509;-61
2022/01/30 09:29:58;;;;;;;36.20;7.53;;;10.10;79.80;;;;;;5051270;28;20041;-59
2022/01/30 09:32:24;;;;;;;47.88;9.93;;;10.50;80.30;;;;;;5051257;28;20037;-59
2022/01/30 09:34:49;;;;;;;36.63;7.78;;;10.90;81.40;;;;;;5050546;28;20037;-59
2022/01/30 09:37:17;;;;;;;40.23;6.97;;;11.20;76.20;;;;;;5048672;28;20041;-59
2022/01/30 09:39:43;;;;;;;39.53;7.78;;;11.40;76.20;;;;;;5065847;28;20290;-58
2022/01/30 09:42:09;;;;;;;48.88;8.02;;;11.70;75.60;;;;;;5051633;28;20041;-60
2022/01/30 09:44:39;;;;;;;31.63;7.15;;;11.80;70.90;;;;;;5050701;28;20025;-59
2022/01/30 09:47:13;;;;;;;37.42;7.68;;;11.80;70.10;;;;;;5051157;28;20079;-56
2022/01/30 09:49:43;;;;;;;43.95;7.22;;;11.70;67.80;;;;;;5049773;28;20033;-56
2022/01/30 09:52:09;;;;;;;31.60;6.63;;;11.70;71.70;;;;;;5051160;28;20045;-60
2022/01/30 09:54:35;;;;;;;30.30;6.30;;;11.60;70.10;;;;;;5050929;28;20112;-59
2022/01/30 09:57:01;;;;;;;34.72;7.47;;;11.70;69.70;;;;;;5050503;28;20041;-60
2022/01/30 09:59:27;;;;;;;35.47;6.93;;;11.80;69.80;;;;;;5049759;28;20486;-60
2022/01/30 10:01:53;;;;;;;39.03;8.07;;;11.90;70.00;;;;;;5046131;28;20504;-59
2022/01/30 10:04:18;;;;;;;46.20;7.20;;;12.10;70.30;;;;;;5030032;28;20069;-60
2022/01/30 10:06:58;;;;;;;34.85;7.93;;;12.10;68.20;;;;;;5030395;28;20577;-60
2022/01/30 10:09:30;;;;;;;41.97;7.57;;;12.30;68.30;;;;;;5029835;28;20156;-61
2022/01/30 10:14:48;;;;;;;30.15;7.57;;;12.30;66.90;;;;;;5030021;28;20045;-61
2022/01/30 10:17:32;;;;;;;33.33;8.93;;;12.20;66.40;;;;;;5045681;28;20054;-59
2022/01/30 10:20:10;;;;;;;32.42;7.35;;;12.20;64.70;;;;;;5029882;28;20044;-60
2022/01/30 10:22:56;;;;;;;33.20;6.93;;;12.20;64.90;;;;;;5028007;28;20495;-59
2022/01/30 10:25:29;;;;;;;39.92;8.10;;;12.10;64.60;;;;;;5024648;28;20554;-58
2022/01/30 10:28:13;;;;;;;43.55;6.85;;;12.30;66.90;;;;;;5046287;28;20041;-59
2022/01/30 10:31:00;;;;;;;46.30;8.02;;;12.10;65.30;;;;;;5030235;28;20042;-57
2022/01/30 10:33:51;;;;;;;39.05;7.40;;;11.80;64.80;;;;;;5030716;28;20041;-59
2022/01/30 10:36:25;;;;;;;32.88;7.28;;;11.50;65.90;;;;;;5030019;28;20460;-59
2022/01/30 10:39:04;;;;;;;45.90;7.40;;;11.40;67.30;;;;;;5029974;28;20045;-59
2022/01/30 10:41:35;;;;;;;31.65;6.50;;;11.60;68.40;;;;;;5028893;28;20029;-58
2022/01/30 10:44:04;;;;;;;35.40;8.15;;;11.70;67.80;;;;;;5030580;28;20041;-60
2022/01/30 10:46:31;;;;;;;45.15;7.90;;;11.70;66.60;;;;;;5029768;28;20056;-60
2022/01/30 10:49:02;;;;;;;49.20;7.80;;;11.90;67.50;;;;;;5029467;28;20507;-60
2022/01/30 10:51:29;;;;;;;37.58;8.07;;;12.00;66.30;;;;;;5029517;28;20041;-59
2022/01/30 10:54:13;;;;;;;40.10;6.18;;;12.10;63.70;;;;;;5030098;28;20080;-57
2022/01/30 10:56:40;;;;;;;41.92;8.20;;;12.10;64.70;;;;;;5029957;28;20521;-59
2022/01/30 10:59:21;;;;;;;35.97;7.50;;;12.20;65.60;;;;;;5029968;28;20045;-60
2022/01/30 11:01:48;;;;;;;41.35;6.53;;;12.40;65.40;;;;;;5030269;28;20036;-62
2022/01/30 11:04:20;;;;;;;24.83;5.65;;;12.40;64.80;;;;;;5028454;28;20145;-59
2022/01/30 11:06:46;;;;;;;33.20;7.13;;;12.70;64.10;;;;;;5029543;28;20042;-59
2022/01/30 11:09:14;;;;;;;;;;;12.70;62.00;;;;;;5029909;28;20038;-59
2022/01/30 11:11:45;;;;;;;41.83;9.00;;;12.90;62.90;;;;;;5029866;28;19917;-59
2022/01/30 11:19:23;;;;;;;54.50;9.05;;;13.10;63.00;;;;;;5025462;28;20049;-58
2022/01/30 11:21:52;;;;;;;38.03;8.63;;;13.30;64.80;;;;;;5031901;28;20050;-55
2022/01/30 11:24:19;;;;;;;28.15;6.00;;;13.40;64.10;;;;;;5040830;28;20122;-57
2022/01/30 11:26:47;;;;;;;32.60;7.43;;;13.40;62.70;;;;;;5034186;28;20091;-57
2022/01/30 11:29:14;;;;;;;39.53;8.18;;;13.20;62.50;;;;;;5032741;28;20113;-55
2022/01/30 11:31:40;;;;;;;39.63;7.15;;;12.90;62.70;;;;;;5032107;28;20103;-60
2022/01/30 11:34:07;;;;;;;30.50;6.95;;;12.60;63.30;;;;;;5032286;28;20124;-58
2022/01/30 11:36:36;;;;;;;33.53;6.85;;;12.10;62.80;;;;;;5033867;28;20067;-59
2022/01/30 11:39:03;;;;;;;64.60;9.60;;;11.70;63.30;;;;;;5028054;28;20043;-59
2022/01/30 11:41:34;;;;;;;98.95;13.13;;;11.30;64.30;;;;;;5033311;28;20041;-57
2022/01/30 11:44:18;;;;;;;89.65;11.23;;;11.00;65.00;;;;;;5013482;28;20490;-54
2022/01/30 11:46:53;;;;;;;54.67;9.13;;;10.70;66.80;;;;;;5018610;28;20025;-59
2022/01/30 11:49:19;;;;;;;53.20;8.23;;;10.40;68.10;;;;;;5031113;28;20128;-60
2022/01/30 11:51:49;;;;;;;62.13;10.82;;;10.30;68.20;;;;;;5030925;28;20088;-55
2022/01/30 11:54:40;;;;;;;47.30;8.32;;;10.10;69.10;;;;;;5032338;28;20040;-56
2022/01/30 11:57:18;;;;;;;44.85;9.25;;;10.10;68.70;;;;;;5047774;28;20069;-58
2022/01/30 11:59:45;;;;;;;73.10;10.63;;;10.20;69.80;;;;;;5033170;28;20045;-55
2022/01/30 12:02:20;;;;;;;40.35;7.45;;;10.30;68.60;;;;;;5021179;28;20044;-63
2022/01/30 12:04:59;;;;;;;34.25;7.13;;;10.70;67.90;;;;;;5035367;28;20525;-65
2022/01/30 12:07:45;;;;;;;36.60;7.53;;;10.90;66.90;;;;;;5034344;28;20552;-62
2022/01/30 12:10:20;;;;;;;37.83;5.18;;;11.10;63.80;;;;;;5016172;28;20041;-62
2022/01/30 12:12:48;;;;;;;33.53;6.85;;;11.00;63.50;;;;;;5023976;28;20095;-65
2022/01/30 12:15:36;;;;;;;31.35;5.57;;;10.90;63.80;;;;;;5032820;28;20046;-65
2022/01/30 12:18:04;;;;;;;36.20;6.43;;;10.90;63.80;;;;;;5032230;28;20107;-63
2022/01/30 12:20:33;;;;;;;30.83;6.43;;;10.80;64.20;;;;;;5027464;28;20063;-64
2022/01/30 12:22:59;;;;;;;39.25;5.20;;;10.80;63.90;;;;;;5032000;28;20037;-64
2022/01/30 12:25:30;;;;;;;25.98;5.32;;;10.80;63.70;;;;;;5032677;28;20057;-65
2022/01/30 12:28:02;;;;;;;25.42;5.30;;;11.10;64.20;;;;;;5032267;28;20486;-63
2022/01/30 12:30:47;;;;;;;36.70;5.80;;;11.70;64.90;;;;;;5032342;28;20072;-65
2022/01/30 12:33:31;;;;;;;28.40;5.95;;;12.50;63.80;;;;;;5046695;28;20072;-66
2022/01/30 12:35:58;;;;;;;30.48;6.72;;;13.10;62.10;;;;;;5012820;28;20376;-64
2022/01/30 12:38:34;;;;;;;29.83;5.03;;;13.40;61.90;;;;;;5020327;28;20034;-63
2022/01/30 12:41:12;;;;;;;25.40;4.80;;;13.50;59.90;;;;;;5032639;28;20073;-63
2022/01/30 12:43:37;;;;;;;25.17;5.10;;;13.20;57.50;;;;;;5032549;28;20099;-64
2022/01/30 12:46:07;;;;;;;36.73;6.20;;;12.90;57.10;;;;;;5031040;28;20459;-66
2022/01/30 12:48:33;;;;;;;27.00;5.15;;;13.20;57.80;;;;;;5031963;28;20580;-65
2022/01/30 12:51:04;;;;;;;32.08;5.40;;;13.20;58.40;;;;;;5031981;28;20045;-64
2022/01/30 12:53:34;;;;;;;21.50;4.13;;;13.30;56.00;;;;;;5031803;28;20099;-62
2022/01/30 12:55:59;;;;;;;29.30;5.10;;;13.30;56.90;;;;;;5032251;28;20155;-64
2022/01/30 12:58:35;;;;;;;29.67;6.05;;;13.30;55.90;;;;;;5032005;28;20605;-62
2022/01/30 13:01:12;;;;;;;34.00;5.40;;;13.40;55.30;;;;;;5030463;28;20033;-63
2022/01/30 13:03:38;;;;;;;23.50;4.82;;;13.50;55.00;;;;;;5021284;28;20079;-65
2022/01/30 13:06:04;;;;;;;25.40;4.80;;;13.60;55.80;;;;;;5031368;28;20041;-64
2022/01/30 13:08:51;;;;;;;21.55;4.25;;;13.70;54.60;;;;;;5027688;28;20033;-63
2022/01/30 13:11:22;;;;;;;27.27;5.13;;;13.70;53.30;;;;;;5030536;28;20108;-63
2022/01/30 13:13:55;;;;;;;27.80;4.65;;;13.60;54.70;;;;;;5027451;28;20068;-64
2022/01/30 13:16:26;;;;;;;23.63;5.68;;;13.60;55.90;;;;;;5031251;28;20037;-64
2022/01/30 13:18:52;;;;;;;24.02;5.18;;;13.90;55.00;;;;;;5030156;28;20038;-63
2022/01/30 13:21:39;;;;;;;27.23;5.53;;;14.00;55.20;;;;;;5014069;28;20659;-63
2022/01/30 13:24:06;;;;;;;29.75;5.20;;;14.30;54.70;;;;;;5029833;28;20296;-62
2022/01/30 13:26:38;;;;;;;24.58;4.20;;;14.50;54.60;;;;;;5030959;28;20037;-63
2022/01/30 13:29:10;;;;;;;30.23;6.57;;;14.40;53.10;;;;;;5046475;28;20091;-64
2022/01/30 13:31:37;;;;;;;25.48;3.97;;;14.50;53.60;;;;;;5031497;28;20056;-64
2022/01/30 13:34:19;;;;;;;24.80;5.28;;;14.60;54.00;;;;;;5030091;28;20049;-65
2022/01/30 13:36:53;;;;;;;25.77;5.03;;;14.70;52.50;;;;;;5028859;28;20398;-63